sensor_id;sensor_type;location;lat;lon;timestamp;pressure;altitude;pressure_sealevel;temperature;humidity
63281;BME280;49406;51.044;3.766;2023-04-21T00:01:50;101516.77;;;5.20;100.00
63281;BME280;49406;51.044;3.766;2023-04-21T00:04:27;101509.44;;;5.14;100.00
63281;BME280;49406;51.044;3.766;2023-04-21T00:07:02;101497.88;;;5.15;100.00
63281;BME280;49406;51.044;3.766;2023-04-21T00:09:36;101496.30;;;5.28;100.00
63281;BME280;49406;51.044;3.766;2023-04-21T00:12:11;101490.34;;;5.31;100.00
63281;BME280;49406;51.044;3.766;2023-04-21T00:14:46;101482.16;;;5.30;100.00
63281;BME280;49406;51.044;3.766;2023-04-21T00:17:20;101480.21;;;5.24;100.00
63281;BME280;49406;51.044;3.766;2023-04-21T00:19:55;101476.58;;;5.16;100.00
63281;BME280;49406;51.044;3.766;2023-04-21T00:22:30;101469.48;;;5.07;100.00
63281;BME280;49406;51.044;3.766;2023-04-21T00:25:07;101465.20;;;5.00;100.00
63281;BME280;49406;51.044;3.766;2023-04-21T00:27:41;101463.98;;;4.91;100.00
63281;BME280;49406;51.044;3.766;2023-04-21T00:30:16;101466.36;;;4.82;100.00
63281;BME280;49406;51.044;3.766;2023-04-21T00:32:51;101473.52;;;4.79;100.00
63281;BME280;49406;51.044;3.766;2023-04-21T00:35:25;101474.05;;;4.92;100.00
63281;BME280;49406;51.044;3.766;2023-04-21T00:38:00;101472.73;;;4.98;100.00
63281;BME280;49406;51.044;3.766;2023-04-21T00:40:35;101469.92;;;4.97;100.00
63281;BME280;49406;51.044;3.766;2023-04-21T00:43:09;101462.00;;;4.94;100.00
63281;BME280;49406;51.044;3.766;2023-04-21T00:45:47;101455.89;;;4.84;100.00
63281;BME280;49406;51.044;3.766;2023-04-21T00:48:21;101450.85;;;4.76;100.00
63281;BME280;49406;51.044;3.766;2023-04-21T00:50:56;101445.34;;;4.72;100.00
63281;BME280;49406;51.044;3.766;2023-04-21T00:53:31;101441.14;;;4.71;100.00
63281;BME280;49406;51.044;3.766;2023-04-21T00:56:06;101448.50;;;4.73;100.00
63281;BME280;49406;51.044;3.766;2023-04-21T00:58:42;101444.05;;;4.75;100.00
63281;BME280;49406;51.044;3.766;2023-04-21T01:01:18;101444.56;;;4.78;100.00
63281;BME280;49406;51.044;3.766;2023-04-21T01:03:53;101440.73;;;4.82;100.00
63281;BME280;49406;51.044;3.766;2023-04-21T01:06:29;101430.91;;;4.96;100.00
63281;BME280;49406;51.044;3.766;2023-04-21T01:09:06;101430.20;;;5.00;100.00
63281;BME280;49406;51.044;3.766;2023-04-21T01:11:41;101420.60;;;5.07;100.00
63281;BME280;49406;51.044;3.766;2023-04-21T01:14:15;101426.27;;;5.24;100.00
63281;BME280;49406;51.044;3.766;2023-04-21T01:16:50;101427.98;;;5.37;100.00
63281;BME280;49406;51.044;3.766;2023-04-21T01:19:25;101431.63;;;5.50;100.00
63281;BME280;49406;51.044;3.766;2023-04-21T01:21:59;101424.84;;;5.63;100.00
63281;BME280;49406;51.044;3.766;2023-04-21T01:24:38;101422.71;;;5.71;100.00
63281;BME280;49406;51.044;3.766;2023-04-21T01:27:15;101426.86;;;5.75;100.00
63281;BME280;49406;51.044;3.766;2023-04-21T01:29:52;101429.64;;;5.81;100.00
63281;BME280;49406;51.044;3.766;2023-04-21T01:32:28;101421.91;;;5.83;100.00
63281;BME280;49406;51.044;3.766;2023-04-21T01:35:04;101423.45;;;5.87;100.00
63281;BME280;49406;51.044;3.766;2023-04-21T01:37:39;101425.33;;;5.90;100.00
63281;BME280;49406;51.044;3.766;2023-04-21T01:40:14;101425.36;;;5.91;100.00
63281;BME280;49406;51.044;3.766;2023-04-21T01:42:48;101429.48;;;5.94;100.00
63281;BME280;49406;51.044;3.766;2023-04-21T01:45:23;101425.86;;;5.95;100.00
63281;BME280;49406;51.044;3.766;2023-04-21T01:47:58;101425.05;;;6.01;100.00
63281;BME280;49406;51.044;3.766;2023-04-21T01:50:32;101426.49;;;6.17;100.00
63281;BME280;49406;51.044;3.766;2023-04-21T01:53:07;101427.95;;;6.24;100.00
63281;BME280;49406;51.044;3.766;2023-04-21T01:55:42;101429.72;;;6.30;100.00
63281;BME280;49406;51.044;3.766;2023-04-21T01:58:15;101428.38;;;6.37;100.00
63281;BME280;49406;51.044;3.766;2023-04-21T02:00:50;101428.88;;;6.40;100.00
63281;BME280;49406;51.044;3.766;2023-04-21T02:03:24;101419.99;;;6.40;100.00
63281;BME280;49406;51.044;3.766;2023-04-21T02:05:59;101418.16;;;6.38;100.00
63281;BME280;49406;51.044;3.766;2023-04-21T02:08:34;101421.05;;;6.36;100.00
63281;BME280;49406;51.044;3.766;2023-04-21T02:11:08;101414.90;;;6.33;100.00
63281;BME280;49406;51.044;3.766;2023-04-21T02:13:43;101411.82;;;6.29;100.00
63281;BME280;49406;51.044;3.766;2023-04-21T02:16:18;101408.05;;;6.36;100.00
63281;BME280;49406;51.044;3.766;2023-04-21T02:18:54;101409.60;;;6.41;100.00
63281;BME280;49406;51.044;3.766;2023-04-21T02:21:30;101410.27;;;6.40;100.00
63281;BME280;49406;51.044;3.766;2023-04-21T02:24:05;101406.20;;;6.38;100.00
63281;BME280;49406;51.044;3.766;2023-04-21T02:26:39;101401.26;;;6.36;100.00
63281;BME280;49406;51.044;3.766;2023-04-21T02:29:14;101399.86;;;6.30;100.00
63281;BME280;49406;51.044;3.766;2023-04-21T02:31:49;101402.59;;;6.29;100.00
63281;BME280;49406;51.044;3.766;2023-04-21T02:34:23;101403.62;;;6.28;100.00
63281;BME280;49406;51.044;3.766;2023-04-21T02:36:58;101392.06;;;6.25;100.00
63281;BME280;49406;51.044;3.766;2023-04-21T02:39:33;101392.90;;;6.24;100.00
63281;BME280;49406;51.044;3.766;2023-04-21T02:42:07;101385.77;;;6.24;100.00
63281;BME280;49406;51.044;3.766;2023-04-21T02:44:42;101381.80;;;6.30;100.00
63281;BME280;49406;51.044;3.766;2023-04-21T02:47:17;101383.70;;;6.36;100.00
63281;BME280;49406;51.044;3.766;2023-04-21T02:49:52;101374.50;;;6.36;100.00
63281;BME280;49406;51.044;3.766;2023-04-21T02:52:26;101374.92;;;6.37;100.00
63281;BME280;49406;51.044;3.766;2023-04-21T02:55:01;101373.18;;;6.42;100.00
63281;BME280;49406;51.044;3.766;2023-04-21T02:57:36;101377.13;;;6.46;100.00
63281;BME280;49406;51.044;3.766;2023-04-21T03:00:12;101375.12;;;6.49;100.00
63281;BME280;49406;51.044;3.766;2023-04-21T03:02:47;101375.66;;;6.49;100.00
63281;BME280;49406;51.044;3.766;2023-04-21T03:05:22;101374.37;;;6.47;100.00
63281;BME280;49406;51.044;3.766;2023-04-21T03:07:56;101371.46;;;6.43;100.00
63281;BME280;49406;51.044;3.766;2023-04-21T03:10:31;101366.64;;;6.39;100.00
63281;BME280;49406;51.044;3.766;2023-04-21T03:13:06;101371.11;;;6.38;100.00
63281;BME280;49406;51.044;3.766;2023-04-21T03:15:40;101371.23;;;6.46;100.00
63281;BME280;49406;51.044;3.766;2023-04-21T03:18:15;101371.10;;;6.48;100.00
63281;BME280;49406;51.044;3.766;2023-04-21T03:20:50;101372.17;;;6.49;100.00
63281;BME280;49406;51.044;3.766;2023-04-21T03:23:24;101367.45;;;6.48;100.00
63281;BME280;49406;51.044;3.766;2023-04-21T03:25:59;101361.77;;;6.50;100.00
63281;BME280;49406;51.044;3.766;2023-04-21T03:28:33;101361.80;;;6.50;100.00
63281;BME280;49406;51.044;3.766;2023-04-21T03:31:08;101355.66;;;6.48;100.00
63281;BME280;49406;51.044;3.766;2023-04-21T03:33:43;101353.03;;;6.48;100.00
63281;BME280;49406;51.044;3.766;2023-04-21T03:36:18;101347.27;;;6.47;100.00
63281;BME280;49406;51.044;3.766;2023-04-21T03:38:52;101340.14;;;6.46;100.00
63281;BME280;49406;51.044;3.766;2023-04-21T03:41:27;101338.90;;;6.46;100.00
63281;BME280;49406;51.044;3.766;2023-04-21T03:44:01;101335.00;;;6.49;100.00
63281;BME280;49406;51.044;3.766;2023-04-21T03:46:36;101333.17;;;6.56;100.00
63281;BME280;49406;51.044;3.766;2023-04-21T03:49:11;101329.48;;;6.55;100.00
63281;BME280;49406;51.044;3.766;2023-04-21T03:51:45;101333.84;;;6.55;100.00
63281;BME280;49406;51.044;3.766;2023-04-21T03:54:20;101327.09;;;6.56;100.00
63281;BME280;49406;51.044;3.766;2023-04-21T03:56:55;101325.50;;;6.55;100.00
63281;BME280;49406;51.044;3.766;2023-04-21T03:59:29;101320.95;;;6.55;100.00
63281;BME280;49406;51.044;3.766;2023-04-21T04:02:04;101322.27;;;6.57;100.00
63281;BME280;49406;51.044;3.766;2023-04-21T04:04:39;101316.01;;;6.57;100.00
63281;BME280;49406;51.044;3.766;2023-04-21T04:07:14;101316.29;;;6.56;100.00
63281;BME280;49406;51.044;3.766;2023-04-21T04:09:49;101317.96;;;6.54;100.00
63281;BME280;49406;51.044;3.766;2023-04-21T04:12:24;101314.06;;;6.51;100.00
63281;BME280;49406;51.044;3.766;2023-04-21T04:14:59;101304.77;;;6.49;100.00
63281;BME280;49406;51.044;3.766;2023-04-21T04:17:35;101301.64;;;6.59;100.00
63281;BME280;49406;51.044;3.766;2023-04-21T04:20:10;101301.73;;;6.62;100.00
63281;BME280;49406;51.044;3.766;2023-04-21T04:22:45;101307.37;;;6.64;100.00
63281;BME280;49406;51.044;3.766;2023-04-21T04:25:19;101309.33;;;6.66;100.00
63281;BME280;49406;51.044;3.766;2023-04-21T04:27:54;101308.13;;;6.61;100.00
63281;BME280;49406;51.044;3.766;2023-04-21T04:30:28;101304.35;;;6.57;100.00
63281;BME280;49406;51.044;3.766;2023-04-21T04:33:05;101305.85;;;6.55;100.00
63281;BME280;49406;51.044;3.766;2023-04-21T04:35:42;101311.70;;;6.64;100.00
63281;BME280;49406;51.044;3.766;2023-04-21T04:38:17;101313.25;;;6.63;100.00
63281;BME280;49406;51.044;3.766;2023-04-21T04:40:55;101311.48;;;6.63;100.00
63281;BME280;49406;51.044;3.766;2023-04-21T04:43:31;101307.70;;;6.58;100.00
63281;BME280;49406;51.044;3.766;2023-04-21T04:46:09;101308.15;;;6.62;100.00
63281;BME280;49406;51.044;3.766;2023-04-21T04:48:45;101308.87;;;6.62;100.00
63281;BME280;49406;51.044;3.766;2023-04-21T04:51:19;101309.58;;;6.57;100.00
63281;BME280;49406;51.044;3.766;2023-04-21T04:53:55;101304.32;;;6.56;100.00
63281;BME280;49406;51.044;3.766;2023-04-21T04:56:31;101302.30;;;6.63;100.00
63281;BME280;49406;51.044;3.766;2023-04-21T04:59:06;101300.29;;;6.66;100.00
63281;BME280;49406;51.044;3.766;2023-04-21T05:01:41;101297.19;;;6.67;100.00
63281;BME280;49406;51.044;3.766;2023-04-21T05:04:16;101293.38;;;6.67;100.00
63281;BME280;49406;51.044;3.766;2023-04-21T05:06:50;101294.38;;;6.66;100.00
63281;BME280;49406;51.044;3.766;2023-04-21T05:09:25;101294.86;;;6.65;100.00
63281;BME280;49406;51.044;3.766;2023-04-21T05:12:00;101302.18;;;6.60;100.00
63281;BME280;49406;51.044;3.766;2023-04-21T05:14:35;101305.98;;;6.54;100.00
63281;BME280;49406;51.044;3.766;2023-04-21T05:17:10;101310.91;;;6.56;100.00
63281;BME280;49406;51.044;3.766;2023-04-21T05:19:44;101312.75;;;6.64;100.00
63281;BME280;49406;51.044;3.766;2023-04-21T05:22:19;101314.96;;;6.69;100.00
63281;BME280;49406;51.044;3.766;2023-04-21T05:24:54;101317.73;;;6.73;100.00
63281;BME280;49406;51.044;3.766;2023-04-21T05:27:29;101313.30;;;6.70;100.00
63281;BME280;49406;51.044;3.766;2023-04-21T05:30:04;101317.36;;;6.73;100.00
63281;BME280;49406;51.044;3.766;2023-04-21T05:32:39;101321.95;;;6.86;100.00
63281;BME280;49406;51.044;3.766;2023-04-21T05:35:14;101330.27;;;6.90;100.00
63281;BME280;49406;51.044;3.766;2023-04-21T05:37:48;101335.49;;;6.97;100.00
63281;BME280;49406;51.044;3.766;2023-04-21T05:40:23;101332.30;;;7.01;100.00
63281;BME280;49406;51.044;3.766;2023-04-21T05:42:58;101333.48;;;7.05;100.00
63281;BME280;49406;51.044;3.766;2023-04-21T05:45:32;101333.63;;;7.10;100.00
63281;BME280;49406;51.044;3.766;2023-04-21T05:48:07;101333.89;;;7.13;100.00
63281;BME280;49406;51.044;3.766;2023-04-21T05:50:42;101340.12;;;7.18;100.00
63281;BME280;49406;51.044;3.766;2023-04-21T05:53:17;101337.08;;;7.21;100.00
63281;BME280;49406;51.044;3.766;2023-04-21T05:55:51;101333.98;;;7.22;100.00
63281;BME280;49406;51.044;3.766;2023-04-21T05:58:26;101337.67;;;7.29;100.00
63281;BME280;49406;51.044;3.766;2023-04-21T06:01:01;101334.92;;;7.36;100.00
63281;BME280;49406;51.044;3.766;2023-04-21T06:03:36;101329.86;;;7.47;100.00
63281;BME280;49406;51.044;3.766;2023-04-21T06:06:10;101329.16;;;7.60;100.00
63281;BME280;49406;51.044;3.766;2023-04-21T06:08:47;101327.96;;;7.67;100.00
63281;BME280;49406;51.044;3.766;2023-04-21T06:11:21;101331.29;;;7.74;100.00
63281;BME280;49406;51.044;3.766;2023-04-21T06:13:56;101324.44;;;7.77;100.00
63281;BME280;49406;51.044;3.766;2023-04-21T06:19:06;101329.60;;;7.75;100.00
63281;BME280;49406;51.044;3.766;2023-04-21T06:21:41;101330.38;;;7.78;100.00
63281;BME280;49406;51.044;3.766;2023-04-21T06:24:15;101328.48;;;7.79;100.00
63281;BME280;49406;51.044;3.766;2023-04-21T06:26:57;101328.42;;;7.84;100.00
63281;BME280;49406;51.044;3.766;2023-04-21T06:29:30;101322.14;;;7.83;100.00
63281;BME280;49406;51.044;3.766;2023-04-21T06:32:04;101322.28;;;7.89;100.00
63281;BME280;49406;51.044;3.766;2023-04-21T06:34:39;101324.39;;;7.95;100.00
63281;BME280;49406;51.044;3.766;2023-04-21T06:37:14;101327.37;;;8.03;100.00
63281;BME280;49406;51.044;3.766;2023-04-21T06:39:48;101323.44;;;8.12;100.00
63281;BME280;49406;51.044;3.766;2023-04-21T06:42:23;101316.84;;;8.33;100.00
63281;BME280;49406;51.044;3.766;2023-04-21T06:44:58;101316.09;;;8.66;100.00
63281;BME280;49406;51.044;3.766;2023-04-21T06:47:32;101315.94;;;8.89;100.00
63281;BME280;49406;51.044;3.766;2023-04-21T06:50:09;101318.65;;;8.94;100.00
63281;BME280;49406;51.044;3.766;2023-04-21T06:52:43;101319.98;;;8.99;100.00
63281;BME280;49406;51.044;3.766;2023-04-21T06:55:18;101322.16;;;9.11;100.00
63281;BME280;49406;51.044;3.766;2023-04-21T06:57:53;101324.64;;;9.29;100.00
63281;BME280;49406;51.044;3.766;2023-04-21T07:00:28;101324.74;;;9.51;100.00
63281;BME280;49406;51.044;3.766;2023-04-21T07:03:03;101321.98;;;9.88;100.00
63281;BME280;49406;51.044;3.766;2023-04-21T07:05:38;101321.67;;;10.10;100.00
63281;BME280;49406;51.044;3.766;2023-04-21T07:08:13;101319.01;;;10.25;100.00
63281;BME280;49406;51.044;3.766;2023-04-21T07:10:47;101321.38;;;10.22;100.00
63281;BME280;49406;51.044;3.766;2023-04-21T07:13:22;101318.14;;;10.26;100.00
63281;BME280;49406;51.044;3.766;2023-04-21T07:15:57;101318.45;;;10.55;100.00
63281;BME280;49406;51.044;3.766;2023-04-21T07:18:31;101318.52;;;10.72;100.00
63281;BME280;49406;51.044;3.766;2023-04-21T07:21:05;101321.52;;;10.60;100.00
63281;BME280;49406;51.044;3.766;2023-04-21T07:23:39;101319.84;;;10.55;100.00
63281;BME280;49406;51.044;3.766;2023-04-21T07:26:14;101318.06;;;10.75;100.00
63281;BME280;49406;51.044;3.766;2023-04-21T07:28:50;101315.04;;;10.84;100.00
63281;BME280;49406;51.044;3.766;2023-04-21T07:31:25;101314.10;;;10.91;100.00
63281;BME280;49406;51.044;3.766;2023-04-21T07:33:59;101313.71;;;11.13;100.00
63281;BME280;49406;51.044;3.766;2023-04-21T07:36:34;101305.10;;;11.24;100.00
63281;BME280;49406;51.044;3.766;2023-04-21T07:39:10;101310.67;;;11.36;100.00
63281;BME280;49406;51.044;3.766;2023-04-21T07:41:45;101303.88;;;11.40;99.89
63281;BME280;49406;51.044;3.766;2023-04-21T07:44:19;101310.39;;;11.57;99.98
63281;BME280;49406;51.044;3.766;2023-04-21T07:46:54;101314.06;;;11.56;99.08
63281;BME280;49406;51.044;3.766;2023-04-21T07:49:29;101322.35;;;11.46;98.15
63281;BME280;49406;51.044;3.766;2023-04-21T07:52:03;101324.93;;;11.57;97.84
63281;BME280;49406;51.044;3.766;2023-04-21T07:54:38;101324.48;;;11.63;97.47
63281;BME280;49406;51.044;3.766;2023-04-21T07:57:13;101326.76;;;11.77;96.51
63281;BME280;49406;51.044;3.766;2023-04-21T07:59:47;101331.30;;;11.91;95.71
63281;BME280;49406;51.044;3.766;2023-04-21T08:02:22;101328.06;;;12.19;94.06
63281;BME280;49406;51.044;3.766;2023-04-21T08:04:57;101330.57;;;12.43;92.62
63281;BME280;49406;51.044;3.766;2023-04-21T08:07:32;101329.80;;;12.34;90.50
63281;BME280;49406;51.044;3.766;2023-04-21T08:10:08;101325.48;;;12.06;90.46
63281;BME280;49406;51.044;3.766;2023-04-21T08:12:43;101324.67;;;11.79;92.38
63281;BME280;49406;51.044;3.766;2023-04-21T08:15:18;101328.34;;;11.63;92.89
63281;BME280;49406;51.044;3.766;2023-04-21T08:17:53;101329.66;;;11.57;93.01
63281;BME280;49406;51.044;3.766;2023-04-21T08:20:28;101331.75;;;11.57;94.10
63281;BME280;49406;51.044;3.766;2023-04-21T08:23:02;101329.08;;;11.67;93.46
63281;BME280;49406;51.044;3.766;2023-04-21T08:25:37;101325.96;;;11.84;92.45
63281;BME280;49406;51.044;3.766;2023-04-21T08:28:12;101325.08;;;12.17;90.49
63281;BME280;49406;51.044;3.766;2023-04-21T08:30:47;101327.70;;;12.36;90.02
63281;BME280;49406;51.044;3.766;2023-04-21T08:33:22;101334.55;;;12.36;87.83
63281;BME280;49406;51.044;3.766;2023-04-21T08:35:57;101330.15;;;12.17;88.58
63281;BME280;49406;51.044;3.766;2023-04-21T08:38:32;101330.29;;;12.32;90.49
63281;BME280;49406;51.044;3.766;2023-04-21T08:41:08;101329.64;;;12.59;88.13
63281;BME280;49406;51.044;3.766;2023-04-21T08:43:43;101325.64;;;12.88;85.43
63281;BME280;49406;51.044;3.766;2023-04-21T08:46:19;101332.02;;;13.00;84.04
63281;BME280;49406;51.044;3.766;2023-04-21T08:48:54;101327.43;;;13.22;86.75
63281;BME280;49406;51.044;3.766;2023-04-21T08:51:27;101336.02;;;13.20;82.68
63281;BME280;49406;51.044;3.766;2023-04-21T08:54:02;101338.91;;;13.06;82.00
63281;BME280;49406;51.044;3.766;2023-04-21T08:56:37;101334.83;;;13.25;81.56
63281;BME280;49406;51.044;3.766;2023-04-21T08:59:12;101332.64;;;13.45;80.20
63281;BME280;49406;51.044;3.766;2023-04-21T09:02:09;101331.96;;;13.49;79.45
63281;BME280;49406;51.044;3.766;2023-04-21T09:04:46;101328.68;;;13.69;80.05
63281;BME280;49406;51.044;3.766;2023-04-21T09:07:35;101328.69;;;13.70;76.16
63281;BME280;49406;51.044;3.766;2023-04-21T09:10:09;101324.48;;;13.71;77.46
63281;BME280;49406;51.044;3.766;2023-04-21T09:12:50;101327.90;;;13.97;78.21
63281;BME280;49406;51.044;3.766;2023-04-21T09:15:25;101320.33;;;14.08;76.59
63281;BME280;49406;51.044;3.766;2023-04-21T09:18:00;101314.02;;;14.07;76.85
63281;BME280;49406;51.044;3.766;2023-04-21T09:20:35;101317.02;;;14.24;74.76
63281;BME280;49406;51.044;3.766;2023-04-21T09:23:10;101326.34;;;14.40;73.66
63281;BME280;49406;51.044;3.766;2023-04-21T09:25:46;101321.80;;;14.53;73.27
63281;BME280;49406;51.044;3.766;2023-04-21T09:28:20;101315.81;;;14.72;72.11
63281;BME280;49406;51.044;3.766;2023-04-21T09:30:56;101313.99;;;14.99;71.17
63281;BME280;49406;51.044;3.766;2023-04-21T09:33:34;101317.99;;;15.16;69.89
63281;BME280;49406;51.044;3.766;2023-04-21T09:36:10;101317.95;;;15.31;69.60
63281;BME280;49406;51.044;3.766;2023-04-21T09:38:58;101314.39;;;15.38;68.61
63281;BME280;49406;51.044;3.766;2023-04-21T09:41:34;101315.79;;;15.40;66.99
63281;BME280;49406;51.044;3.766;2023-04-21T09:44:08;101309.21;;;15.57;68.28
63281;BME280;49406;51.044;3.766;2023-04-21T09:46:43;101311.18;;;15.86;66.32
63281;BME280;49406;51.044;3.766;2023-04-21T09:49:23;101301.81;;;15.91;65.50
63281;BME280;49406;51.044;3.766;2023-04-21T09:52:00;101297.50;;;16.03;65.36
63281;BME280;49406;51.044;3.766;2023-04-21T09:54:37;101294.45;;;16.10;63.99
63281;BME280;49406;51.044;3.766;2023-04-21T09:57:22;101298.91;;;15.75;63.06
63281;BME280;49406;51.044;3.766;2023-04-21T10:00:01;101295.38;;;15.76;63.41
63281;BME280;49406;51.044;3.766;2023-04-21T10:02:43;101295.19;;;15.79;62.22
63281;BME280;49406;51.044;3.766;2023-04-21T10:05:18;101294.85;;;15.76;62.02
63281;BME280;49406;51.044;3.766;2023-04-21T10:07:53;101288.80;;;15.87;61.58
63281;BME280;49406;51.044;3.766;2023-04-21T10:10:27;101285.79;;;16.13;61.26
63281;BME280;49406;51.044;3.766;2023-04-21T10:13:04;101281.70;;;16.16;59.05
63281;BME280;49406;51.044;3.766;2023-04-21T10:15:40;101278.64;;;16.24;60.12
63281;BME280;49406;51.044;3.766;2023-04-21T10:18:18;101272.18;;;16.37;60.22
63281;BME280;49406;51.044;3.766;2023-04-21T10:20:55;101265.48;;;16.56;59.20
63281;BME280;49406;51.044;3.766;2023-04-21T10:23:35;101262.66;;;16.54;58.74
63281;BME280;49406;51.044;3.766;2023-04-21T10:26:12;101260.30;;;16.61;58.15
63281;BME280;49406;51.044;3.766;2023-04-21T10:28:51;101259.40;;;16.64;57.09
63281;BME280;49406;51.044;3.766;2023-04-21T10:31:30;101251.61;;;16.47;56.17
63281;BME280;49406;51.044;3.766;2023-04-21T10:34:27;101248.69;;;16.59;59.10
63281;BME280;49406;51.044;3.766;2023-04-21T10:37:21;101245.29;;;16.96;58.97
63281;BME280;49406;51.044;3.766;2023-04-21T10:39:56;101237.27;;;17.30;54.03
63281;BME280;49406;51.044;3.766;2023-04-21T10:42:34;101231.66;;;17.28;52.47
63281;BME280;49406;51.044;3.766;2023-04-21T10:45:12;101236.80;;;17.14;52.43
63281;BME280;49406;51.044;3.766;2023-04-21T10:47:48;101229.63;;;17.21;52.84
63281;BME280;49406;51.044;3.766;2023-04-21T10:50:27;101219.60;;;17.31;52.87
63281;BME280;49406;51.044;3.766;2023-04-21T10:53:09;101212.39;;;17.41;53.92
63281;BME280;49406;51.044;3.766;2023-04-21T10:55:49;101210.09;;;17.41;52.79
63281;BME280;49406;51.044;3.766;2023-04-21T10:58:24;101213.50;;;17.12;52.19
63281;BME280;49406;51.044;3.766;2023-04-21T11:00:58;101210.14;;;16.97;54.72
63281;BME280;49406;51.044;3.766;2023-04-21T11:03:35;101211.09;;;17.20;55.14
63281;BME280;49406;51.044;3.766;2023-04-21T11:06:16;101204.75;;;17.31;53.34
63281;BME280;49406;51.044;3.766;2023-04-21T11:08:57;101204.63;;;17.53;52.79
63281;BME280;49406;51.044;3.766;2023-04-21T11:11:32;101200.52;;;17.55;50.55
63281;BME280;49406;51.044;3.766;2023-04-21T11:14:08;101193.38;;;17.60;51.14
63281;BME280;49406;51.044;3.766;2023-04-21T11:16:44;101193.67;;;17.76;50.08
63281;BME280;49406;51.044;3.766;2023-04-21T11:19:19;101188.58;;;17.74;48.99
63281;BME280;49406;51.044;3.766;2023-04-21T11:21:56;101181.38;;;17.58;49.90
63281;BME280;49406;51.044;3.766;2023-04-21T11:24:31;101176.59;;;17.72;50.08
63281;BME280;49406;51.044;3.766;2023-04-21T11:27:09;101175.96;;;17.79;48.91
63281;BME280;49406;51.044;3.766;2023-04-21T11:29:45;101178.55;;;17.72;48.45
63281;BME280;49406;51.044;3.766;2023-04-21T11:32:19;101172.82;;;17.76;47.91
63281;BME280;49406;51.044;3.766;2023-04-21T11:34:54;101164.00;;;17.85;49.26
63281;BME280;49406;51.044;3.766;2023-04-21T11:37:29;101169.89;;;17.82;50.80
63281;BME280;49406;51.044;3.766;2023-04-21T11:40:05;101167.30;;;18.00;48.57
63281;BME280;49406;51.044;3.766;2023-04-21T11:42:40;101168.97;;;17.85;46.88
63281;BME280;49406;51.044;3.766;2023-04-21T11:45:18;101165.55;;;17.65;46.60
63281;BME280;49406;51.044;3.766;2023-04-21T11:48:13;101157.17;;;17.57;46.30
63281;BME280;49406;51.044;3.766;2023-04-21T11:50:51;101153.25;;;17.59;46.84
63281;BME280;49406;51.044;3.766;2023-04-21T11:53:26;101148.30;;;17.71;46.73
63281;BME280;49406;51.044;3.766;2023-04-21T11:56:02;101145.33;;;17.70;46.46
63281;BME280;49406;51.044;3.766;2023-04-21T11:58:38;101142.62;;;17.73;46.17
63281;BME280;49406;51.044;3.766;2023-04-21T12:01:15;101137.17;;;17.71;46.20
63281;BME280;49406;51.044;3.766;2023-04-21T12:03:54;101132.52;;;17.51;46.90
63281;BME280;49406;51.044;3.766;2023-04-21T12:06:29;101132.90;;;17.61;47.50
63281;BME280;49406;51.044;3.766;2023-04-21T12:09:03;101134.77;;;17.67;46.09
63281;BME280;49406;51.044;3.766;2023-04-21T12:11:38;101134.02;;;17.58;45.28
63281;BME280;49406;51.044;3.766;2023-04-21T12:14:15;101127.71;;;17.53;45.67
63281;BME280;49406;51.044;3.766;2023-04-21T12:16:51;101120.83;;;17.76;45.62
63281;BME280;49406;51.044;3.766;2023-04-21T12:19:38;101118.20;;;17.95;44.99
63281;BME280;49406;51.044;3.766;2023-04-21T12:22:14;101124.13;;;18.00;44.35
63281;BME280;49406;51.044;3.766;2023-04-21T12:24:50;101122.23;;;17.97;41.30
63281;BME280;49406;51.044;3.766;2023-04-21T12:27:25;101117.30;;;18.06;41.06
63281;BME280;49406;51.044;3.766;2023-04-21T12:29:59;101116.66;;;18.02;40.75
63281;BME280;49406;51.044;3.766;2023-04-21T12:32:35;101113.05;;;17.96;41.44
63281;BME280;49406;51.044;3.766;2023-04-21T12:35:10;101114.20;;;18.11;41.09
63281;BME280;49406;51.044;3.766;2023-04-21T12:37:45;101102.92;;;18.17;40.46
63281;BME280;49406;51.044;3.766;2023-04-21T12:40:20;101107.70;;;18.08;40.64
63281;BME280;49406;51.044;3.766;2023-04-21T12:42:55;101107.20;;;17.87;39.40
63281;BME280;49406;51.044;3.766;2023-04-21T12:45:29;101110.99;;;17.92;39.35
63281;BME280;49406;51.044;3.766;2023-04-21T12:48:05;101101.71;;;18.07;39.00
63281;BME280;49406;51.044;3.766;2023-04-21T12:50:40;101104.08;;;18.40;39.44
63281;BME280;49406;51.044;3.766;2023-04-21T12:53:15;101103.89;;;18.76;41.24
63281;BME280;49406;51.044;3.766;2023-04-21T12:55:50;101104.48;;;18.99;41.28
63281;BME280;49406;51.044;3.766;2023-04-21T12:58:25;101107.31;;;19.21;39.51
63281;BME280;49406;51.044;3.766;2023-04-21T13:01:00;101099.52;;;18.98;40.09
63281;BME280;49406;51.044;3.766;2023-04-21T13:03:34;101097.25;;;18.96;40.39
63281;BME280;49406;51.044;3.766;2023-04-21T13:06:09;101092.08;;;19.06;39.99
63281;BME280;49406;51.044;3.766;2023-04-21T13:08:44;101080.77;;;19.19;39.07
63281;BME280;49406;51.044;3.766;2023-04-21T13:11:19;101080.80;;;19.33;38.71
63281;BME280;49406;51.044;3.766;2023-04-21T13:13:53;101087.55;;;19.69;38.27
63281;BME280;49406;51.044;3.766;2023-04-21T13:16:28;101091.26;;;19.97;36.41
63281;BME280;49406;51.044;3.766;2023-04-21T13:19:03;101082.81;;;19.74;37.16
63281;BME280;49406;51.044;3.766;2023-04-21T13:21:37;101082.86;;;19.59;38.20
63281;BME280;49406;51.044;3.766;2023-04-21T13:24:12;101075.30;;;19.63;38.34
63281;BME280;49406;51.044;3.766;2023-04-21T13:26:45;101073.73;;;19.25;38.02
63281;BME280;49406;51.044;3.766;2023-04-21T13:29:19;101075.97;;;18.64;38.17
63281;BME280;49406;51.044;3.766;2023-04-21T13:31:54;101074.88;;;18.03;39.76
63281;BME280;49406;51.044;3.766;2023-04-21T13:34:29;101067.34;;;17.81;40.82
63281;BME280;49406;51.044;3.766;2023-04-21T13:37:04;101064.73;;;17.68;41.25